sensor_id;sensor_type;location;lat;lon;timestamp;P1;durP1;ratioP1;P2;durP2;ratioP2
81265;SDS011;70748;52.510;13.410;2023-06-22T00:02:20;13.07;;;9.73;;
81265;SDS011;70748;52.510;13.410;2023-06-22T00:04:46;12.05;;;9.60;;
81265;SDS011;70748;52.510;13.410;2023-06-22T00:07:12;13.93;;;10.57;;
81265;SDS011;70748;52.510;13.410;2023-06-22T00:09:37;11.95;;;9.80;;
81265;SDS011;70748;52.510;13.410;2023-06-22T00:12:03;15.75;;;10.48;;
81265;SDS011;70748;52.510;13.410;2023-06-22T00:14:29;15.02;;;10.02;;
81265;SDS011;70748;52.510;13.410;2023-06-22T00:16:55;14.55;;;10.25;;
81265;SDS011;70748;52.510;13.410;2023-06-22T00:19:22;12.65;;;10.02;;
81265;SDS011;70748;52.510;13.410;2023-06-22T00:21:50;11.93;;;10.25;;
81265;SDS011;70748;52.510;13.410;2023-06-22T00:24:24;13.10;;;10.30;;
81265;SDS011;70748;52.510;13.410;2023-06-22T00:26:49;12.07;;;9.57;;
81265;SDS011;70748;52.510;13.410;2023-06-22T00:29:19;14.48;;;10.20;;
81265;SDS011;70748;52.510;13.410;2023-06-22T00:31:50;12.35;;;9.73;;
81265;SDS011;70748;52.510;13.410;2023-06-22T00:34:18;17.42;;;10.32;;
81265;SDS011;70748;52.510;13.410;2023-06-22T00:36:44;12.20;;;9.80;;
81265;SDS011;70748;52.510;13.410;2023-06-22T00:39:10;15.02;;;10.60;;
81265;SDS011;70748;52.510;13.410;2023-06-22T00:41:39;12.85;;;9.75;;
81265;SDS011;70748;52.510;13.410;2023-06-22T00:44:07;14.85;;;10.23;;
81265;SDS011;70748;52.510;13.410;2023-06-22T00:46:33;16.08;;;11.15;;
81265;SDS011;70748;52.510;13.410;2023-06-22T00:48:59;15.20;;;10.98;;
81265;SDS011;70748;52.510;13.410;2023-06-22T00:51:30;13.68;;;11.02;;
81265;SDS011;70748;52.510;13.410;2023-06-22T00:53:56;15.25;;;11.82;;
81265;SDS011;70748;52.510;13.410;2023-06-22T00:56:24;16.67;;;11.37;;
81265;SDS011;70748;52.510;13.410;2023-06-22T00:58:55;13.80;;;11.60;;
81265;SDS011;70748;52.510;13.410;2023-06-22T01:01:22;15.10;;;11.88;;
81265;SDS011;70748;52.510;13.410;2023-06-22T01:03:48;16.13;;;11.93;;
81265;SDS011;70748;52.510;13.410;2023-06-22T01:06:25;16.38;;;11.43;;
81265;SDS011;70748;52.510;13.410;2023-06-22T01:09:02;15.18;;;12.23;;
81265;SDS011;70748;52.510;13.410;2023-06-22T01:11:52;16.75;;;12.45;;
81265;SDS011;70748;52.510;13.410;2023-06-22T01:14:37;14.52;;;12.15;;
81265;SDS011;70748;52.510;13.410;2023-06-22T01:17:17;12.93;;;11.52;;
81265;SDS011;70748;52.510;13.410;2023-06-22T01:19:45;17.15;;;11.85;;
81265;SDS011;70748;52.510;13.410;2023-06-22T01:22:22;14.63;;;12.82;;
81265;SDS011;70748;52.510;13.410;2023-06-22T01:25:07;16.85;;;12.85;;
81265;SDS011;70748;52.510;13.410;2023-06-22T01:27:47;13.20;;;11.75;;
81265;SDS011;70748;52.510;13.410;2023-06-22T01:30:26;14.27;;;12.20;;
81265;SDS011;70748;52.510;13.410;2023-06-22T01:32:54;16.15;;;13.02;;
81265;SDS011;70748;52.510;13.410;2023-06-22T01:35:23;18.00;;;12.68;;
81265;SDS011;70748;52.510;13.410;2023-06-22T01:37:50;15.68;;;12.13;;
81265;SDS011;70748;52.510;13.410;2023-06-22T01:40:16;17.45;;;12.20;;
81265;SDS011;70748;52.510;13.410;2023-06-22T01:42:43;15.73;;;11.63;;
81265;SDS011;70748;52.510;13.410;2023-06-22T01:45:10;18.42;;;11.73;;
81265;SDS011;70748;52.510;13.410;2023-06-22T01:47:36;21.27;;;12.40;;
81265;SDS011;70748;52.510;13.410;2023-06-22T01:50:03;17.00;;;12.30;;
81265;SDS011;70748;52.510;13.410;2023-06-22T01:52:29;18.15;;;12.98;;
81265;SDS011;70748;52.510;13.410;2023-06-22T01:54:55;17.13;;;12.65;;
81265;SDS011;70748;52.510;13.410;2023-06-22T01:57:22;19.35;;;13.60;;
81265;SDS011;70748;52.510;13.410;2023-06-22T02:00:02;23.23;;;14.30;;
81265;SDS011;70748;52.510;13.410;2023-06-22T02:02:39;18.92;;;13.10;;
81265;SDS011;70748;52.510;13.410;2023-06-22T02:05:15;16.40;;;12.40;;
81265;SDS011;70748;52.510;13.410;2023-06-22T02:10:26;20.30;;;12.80;;
81265;SDS011;70748;52.510;13.410;2023-06-22T02:12:53;20.55;;;13.80;;
81265;SDS011;70748;52.510;13.410;2023-06-22T02:15:22;16.95;;;14.30;;
81265;SDS011;70748;52.510;13.410;2023-06-22T02:17:48;16.02;;;14.13;;
81265;SDS011;70748;52.510;13.410;2023-06-22T02:20:14;17.70;;;13.13;;
81265;SDS011;70748;52.510;13.410;2023-06-22T02:22:40;19.05;;;12.57;;
81265;SDS011;70748;52.510;13.410;2023-06-22T02:25:06;16.48;;;12.27;;
81265;SDS011;70748;52.510;13.410;2023-06-22T02:27:33;15.32;;;12.30;;
81265;SDS011;70748;52.510;13.410;2023-06-22T02:29:58;15.15;;;12.18;;
81265;SDS011;70748;52.510;13.410;2023-06-22T02:32:24;16.48;;;12.73;;
81265;SDS011;70748;52.510;13.410;2023-06-22T02:34:49;21.60;;;13.80;;
81265;SDS011;70748;52.510;13.410;2023-06-22T02:37:15;18.85;;;12.68;;
81265;SDS011;70748;52.510;13.410;2023-06-22T02:39:41;15.35;;;12.88;;
81265;SDS011;70748;52.510;13.410;2023-06-22T02:42:07;20.60;;;13.23;;
81265;SDS011;70748;52.510;13.410;2023-06-22T02:44:35;17.93;;;14.07;;
81265;SDS011;70748;52.510;13.410;2023-06-22T02:47:01;17.48;;;14.57;;
81265;SDS011;70748;52.510;13.410;2023-06-22T02:49:27;21.23;;;13.00;;
81265;SDS011;70748;52.510;13.410;2023-06-22T02:51:53;20.67;;;13.95;;
81265;SDS011;70748;52.510;13.410;2023-06-22T02:54:20;14.88;;;12.70;;
81265;SDS011;70748;52.510;13.410;2023-06-22T02:56:46;18.77;;;13.57;;
81265;SDS011;70748;52.510;13.410;2023-06-22T02:59:13;14.93;;;12.73;;
81265;SDS011;70748;52.510;13.410;2023-06-22T03:01:38;17.30;;;14.07;;
81265;SDS011;70748;52.510;13.410;2023-06-22T03:06:33;18.83;;;13.82;;
81265;SDS011;70748;52.510;13.410;2023-06-22T03:09:00;17.95;;;13.48;;
81265;SDS011;70748;52.510;13.410;2023-06-22T03:11:28;21.40;;;14.80;;
81265;SDS011;70748;52.510;13.410;2023-06-22T03:13:56;18.83;;;13.95;;
81265;SDS011;70748;52.510;13.410;2023-06-22T03:16:21;20.40;;;14.45;;
81265;SDS011;70748;52.510;13.410;2023-06-22T03:18:48;16.52;;;12.48;;
81265;SDS011;70748;52.510;13.410;2023-06-22T03:21:14;19.30;;;14.38;;
81265;SDS011;70748;52.510;13.410;2023-06-22T03:23:40;21.00;;;13.73;;
81265;SDS011;70748;52.510;13.410;2023-06-22T03:26:06;20.27;;;12.88;;
81265;SDS011;70748;52.510;13.410;2023-06-22T03:28:33;24.35;;;13.20;;
81265;SDS011;70748;52.510;13.410;2023-06-22T03:30:59;17.63;;;12.77;;
81265;SDS011;70748;52.510;13.410;2023-06-22T03:33:25;23.60;;;12.77;;
81265;SDS011;70748;52.510;13.410;2023-06-22T03:35:51;20.40;;;12.40;;
81265;SDS011;70748;52.510;13.410;2023-06-22T03:38:16;14.98;;;11.73;;
81265;SDS011;70748;52.510;13.410;2023-06-22T03:40:42;15.38;;;11.52;;
81265;SDS011;70748;52.510;13.410;2023-06-22T03:43:08;15.50;;;11.52;;
81265;SDS011;70748;52.510;13.410;2023-06-22T03:45:34;15.63;;;10.57;;
81265;SDS011;70748;52.510;13.410;2023-06-22T03:48:00;13.10;;;9.52;;
81265;SDS011;70748;52.510;13.410;2023-06-22T03:50:26;14.75;;;9.95;;
81265;SDS011;70748;52.510;13.410;2023-06-22T03:52:52;15.38;;;10.00;;
81265;SDS011;70748;52.510;13.410;2023-06-22T03:55:21;14.32;;;9.85;;
81265;SDS011;70748;52.510;13.410;2023-06-22T03:57:49;14.82;;;10.30;;
81265;SDS011;70748;52.510;13.410;2023-06-22T04:00:18;15.38;;;10.00;;
81265;SDS011;70748;52.510;13.410;2023-06-22T04:02:43;11.88;;;8.63;;
81265;SDS011;70748;52.510;13.410;2023-06-22T04:05:09;12.57;;;9.13;;
81265;SDS011;70748;52.510;13.410;2023-06-22T04:07:35;13.80;;;8.55;;
81265;SDS011;70748;52.510;13.410;2023-06-22T04:10:02;13.25;;;7.85;;
81265;SDS011;70748;52.510;13.410;2023-06-22T04:12:29;11.73;;;7.78;;
81265;SDS011;70748;52.510;13.410;2023-06-22T04:14:55;21.92;;;8.05;;
81265;SDS011;70748;52.510;13.410;2023-06-22T04:17:20;9.95;;;6.90;;
81265;SDS011;70748;52.510;13.410;2023-06-22T04:19:46;15.50;;;7.43;;
81265;SDS011;70748;52.510;13.410;2023-06-22T04:22:12;13.85;;;6.88;;
81265;SDS011;70748;52.510;13.410;2023-06-22T04:24:38;10.48;;;6.90;;
81265;SDS011;70748;52.510;13.410;2023-06-22T04:27:04;10.35;;;6.45;;
81265;SDS011;70748;52.510;13.410;2023-06-22T04:29:30;9.65;;;6.53;;
81265;SDS011;70748;52.510;13.410;2023-06-22T04:31:56;14.18;;;6.63;;
81265;SDS011;70748;52.510;13.410;2023-06-22T04:34:23;11.02;;;7.20;;
81265;SDS011;70748;52.510;13.410;2023-06-22T04:36:52;12.40;;;6.20;;
81265;SDS011;70748;52.510;13.410;2023-06-22T04:39:18;11.98;;;5.95;;
81265;SDS011;70748;52.510;13.410;2023-06-22T04:41:44;10.15;;;6.20;;
81265;SDS011;70748;52.510;13.410;2023-06-22T04:44:14;13.05;;;5.70;;
81265;SDS011;70748;52.510;13.410;2023-06-22T04:46:57;6.93;;;4.82;;
81265;SDS011;70748;52.510;13.410;2023-06-22T04:49:28;17.95;;;5.57;;
81265;SDS011;70748;52.510;13.410;2023-06-22T04:52:01;12.82;;;5.32;;
81265;SDS011;70748;52.510;13.410;2023-06-22T04:54:28;9.25;;;5.53;;
81265;SDS011;70748;52.510;13.410;2023-06-22T04:56:54;10.10;;;5.75;;
81265;SDS011;70748;52.510;13.410;2023-06-22T04:59:23;9.38;;;5.50;;
81265;SDS011;70748;52.510;13.410;2023-06-22T05:01:59;13.20;;;6.00;;
81265;SDS011;70748;52.510;13.410;2023-06-22T05:04:28;8.68;;;4.82;;
81265;SDS011;70748;52.510;13.410;2023-06-22T05:07:01;7.28;;;4.65;;
81265;SDS011;70748;52.510;13.410;2023-06-22T05:09:29;7.75;;;5.13;;
81265;SDS011;70748;52.510;13.410;2023-06-22T05:11:55;15.45;;;5.47;;
81265;SDS011;70748;52.510;13.410;2023-06-22T05:14:22;13.50;;;4.90;;
81265;SDS011;70748;52.510;13.410;2023-06-22T05:16:48;9.10;;;5.20;;
81265;SDS011;70748;52.510;13.410;2023-06-22T05:19:14;6.85;;;5.07;;
81265;SDS011;70748;52.510;13.410;2023-06-22T05:21:40;7.43;;;4.57;;
81265;SDS011;70748;52.510;13.410;2023-06-22T05:24:05;10.48;;;5.30;;
81265;SDS011;70748;52.510;13.410;2023-06-22T05:26:31;7.95;;;5.22;;
81265;SDS011;70748;52.510;13.410;2023-06-22T05:28:59;7.18;;;4.88;;
81265;SDS011;70748;52.510;13.410;2023-06-22T05:31:26;12.35;;;5.40;;
81265;SDS011;70748;52.510;13.410;2023-06-22T05:33:52;12.52;;;5.03;;
81265;SDS011;70748;52.510;13.410;2023-06-22T05:36:19;13.93;;;5.80;;
81265;SDS011;70748;52.510;13.410;2023-06-22T05:38:46;9.07;;;5.47;;
81265;SDS011;70748;52.510;13.410;2023-06-22T05:41:12;12.40;;;5.28;;
81265;SDS011;70748;52.510;13.410;2023-06-22T05:43:39;8.88;;;5.40;;
81265;SDS011;70748;52.510;13.410;2023-06-22T05:46:05;7.28;;;5.00;;
81265;SDS011;70748;52.510;13.410;2023-06-22T05:48:31;10.15;;;5.75;;
81265;SDS011;70748;52.510;13.410;2023-06-22T05:50:56;10.10;;;5.80;;
81265;SDS011;70748;52.510;13.410;2023-06-22T05:53:22;12.32;;;5.72;;
81265;SDS011;70748;52.510;13.410;2023-06-22T05:55:48;8.52;;;5.05;;
81265;SDS011;70748;52.510;13.410;2023-06-22T05:58:14;13.32;;;5.15;;
81265;SDS011;70748;52.510;13.410;2023-06-22T06:00:40;8.30;;;4.60;;
81265;SDS011;70748;52.510;13.410;2023-06-22T06:03:09;10.77;;;5.00;;
81265;SDS011;70748;52.510;13.410;2023-06-22T06:05:42;9.68;;;5.15;;
81265;SDS011;70748;52.510;13.410;2023-06-22T06:08:10;6.95;;;4.40;;
81265;SDS011;70748;52.510;13.410;2023-06-22T06:10:37;7.68;;;4.95;;
81265;SDS011;70748;52.510;13.410;2023-06-22T06:13:04;7.47;;;4.90;;
81265;SDS011;70748;52.510;13.410;2023-06-22T06:15:30;8.93;;;5.15;;
81265;SDS011;70748;52.510;13.410;2023-06-22T06:17:57;10.23;;;5.00;;
81265;SDS011;70748;52.510;13.410;2023-06-22T06:20:23;11.73;;;4.82;;
81265;SDS011;70748;52.510;13.410;2023-06-22T06:22:50;7.32;;;4.55;;
81265;SDS011;70748;52.510;13.410;2023-06-22T06:25:16;8.50;;;4.88;;
81265;SDS011;70748;52.510;13.410;2023-06-22T06:27:49;13.98;;;4.57;;
81265;SDS011;70748;52.510;13.410;2023-06-22T06:30:19;8.23;;;4.13;;
81265;SDS011;70748;52.510;13.410;2023-06-22T06:32:46;6.60;;;4.03;;
81265;SDS011;70748;52.510;13.410;2023-06-22T06:35:13;9.02;;;4.32;;
81265;SDS011;70748;52.510;13.410;2023-06-22T06:37:43;7.65;;;4.20;;
81265;SDS011;70748;52.510;13.410;2023-06-22T06:40:11;7.23;;;4.23;;
81265;SDS011;70748;52.510;13.410;2023-06-22T06:42:38;8.37;;;4.33;;
81265;SDS011;70748;52.510;13.410;2023-06-22T06:45:07;8.27;;;3.95;;
81265;SDS011;70748;52.510;13.410;2023-06-22T06:47:33;7.88;;;3.72;;
81265;SDS011;70748;52.510;13.410;2023-06-22T06:49:59;5.93;;;4.22;;
81265;SDS011;70748;52.510;13.410;2023-06-22T06:52:25;8.13;;;4.35;;
81265;SDS011;70748;52.510;13.410;2023-06-22T06:54:51;12.77;;;4.00;;
81265;SDS011;70748;52.510;13.410;2023-06-22T06:57:20;10.90;;;4.60;;
81265;SDS011;70748;52.510;13.410;2023-06-22T06:59:47;6.68;;;3.75;;
81265;SDS011;70748;52.510;13.410;2023-06-22T07:02:14;7.95;;;4.00;;
81265;SDS011;70748;52.510;13.410;2023-06-22T07:04:40;6.93;;;4.63;;
81265;SDS011;70748;52.510;13.410;2023-06-22T07:07:06;7.85;;;4.10;;
81265;SDS011;70748;52.510;13.410;2023-06-22T07:09:32;7.18;;;4.00;;
81265;SDS011;70748;52.510;13.410;2023-06-22T07:11:57;6.47;;;3.85;;
81265;SDS011;70748;52.510;13.410;2023-06-22T07:14:23;6.90;;;3.63;;
81265;SDS011;70748;52.510;13.410;2023-06-22T07:16:49;5.13;;;3.42;;
81265;SDS011;70748;52.510;13.410;2023-06-22T07:19:15;6.88;;;3.92;;
81265;SDS011;70748;52.510;13.410;2023-06-22T07:21:40;5.72;;;4.15;;
81265;SDS011;70748;52.510;13.410;2023-06-22T07:24:06;9.18;;;3.75;;
81265;SDS011;70748;52.510;13.410;2023-06-22T07:26:32;8.07;;;3.88;;
81265;SDS011;70748;52.510;13.410;2023-06-22T07:28:58;7.10;;;3.78;;
81265;SDS011;70748;52.510;13.410;2023-06-22T07:31:24;7.75;;;3.83;;
81265;SDS011;70748;52.510;13.410;2023-06-22T07:33:50;8.70;;;3.47;;
81265;SDS011;70748;52.510;13.410;2023-06-22T07:36:17;7.68;;;3.38;;
81265;SDS011;70748;52.510;13.410;2023-06-22T07:38:43;7.72;;;3.35;;
81265;SDS011;70748;52.510;13.410;2023-06-22T07:41:09;5.35;;;3.00;;
81265;SDS011;70748;52.510;13.410;2023-06-22T07:43:35;7.30;;;3.47;;
81265;SDS011;70748;52.510;13.410;2023-06-22T07:46:05;10.15;;;3.75;;
81265;SDS011;70748;52.510;13.410;2023-06-22T07:48:36;4.88;;;3.50;;
81265;SDS011;70748;52.510;13.410;2023-06-22T07:51:02;8.77;;;3.65;;
81265;SDS011;70748;52.510;13.410;2023-06-22T07:53:28;7.53;;;3.03;;
81265;SDS011;70748;52.510;13.410;2023-06-22T07:55:54;4.15;;;2.88;;
81265;SDS011;70748;52.510;13.410;2023-06-22T08:01:45;4.72;;;3.38;;
81265;SDS011;70748;52.510;13.410;2023-06-22T08:14:33;7.68;;;3.10;;
81265;SDS011;70748;52.510;13.410;2023-06-22T08:17:02;3.83;;;2.90;;
81265;SDS011;70748;52.510;13.410;2023-06-22T08:19:47;10.15;;;2.95;;
81265;SDS011;70748;52.510;13.410;2023-06-22T08:26:16;6.18;;;4.25;;
81265;SDS011;70748;52.510;13.410;2023-06-22T08:28:43;4.93;;;3.45;;
81265;SDS011;70748;52.510;13.410;2023-06-22T08:34:38;6.05;;;3.42;;
81265;SDS011;70748;52.510;13.410;2023-06-22T08:37:07;8.65;;;3.33;;
81265;SDS011;70748;52.510;13.410;2023-06-22T08:39:34;7.45;;;2.92;;
81265;SDS011;70748;52.510;13.410;2023-06-22T08:42:00;6.88;;;3.30;;
81265;SDS011;70748;52.510;13.410;2023-06-22T08:44:25;5.13;;;3.42;;
81265;SDS011;70748;52.510;13.410;2023-06-22T08:46:51;7.30;;;3.30;;
81265;SDS011;70748;52.510;13.410;2023-06-22T08:49:17;4.75;;;3.65;;
81265;SDS011;70748;52.510;13.410;2023-06-22T08:51:42;10.80;;;3.70;;
81265;SDS011;70748;52.510;13.410;2023-06-22T08:54:10;10.20;;;3.90;;
81265;SDS011;70748;52.510;13.410;2023-06-22T08:56:39;6.60;;;3.97;;
81265;SDS011;70748;52.510;13.410;2023-06-22T08:59:27;6.57;;;4.00;;
81265;SDS011;70748;52.510;13.410;2023-06-22T09:01:53;8.85;;;4.10;;
81265;SDS011;70748;52.510;13.410;2023-06-22T09:04:19;7.45;;;3.45;;
81265;SDS011;70748;52.510;13.410;2023-06-22T09:12:15;6.20;;;3.40;;
81265;SDS011;70748;52.510;13.410;2023-06-22T09:14:41;6.38;;;3.58;;
81265;SDS011;70748;52.510;13.410;2023-06-22T09:20:36;6.13;;;3.72;;
81265;SDS011;70748;52.510;13.410;2023-06-22T09:23:02;6.78;;;3.88;;
81265;SDS011;70748;52.510;13.410;2023-06-22T09:25:35;4.80;;;3.63;;
81265;SDS011;70748;52.510;13.410;2023-06-22T09:28:05;6.28;;;3.30;;
81265;SDS011;70748;52.510;13.410;2023-06-22T09:30:31;10.07;;;3.50;;
81265;SDS011;70748;52.510;13.410;2023-06-22T09:32:57;5.25;;;3.40;;
81265;SDS011;70748;52.510;13.410;2023-06-22T09:35:22;10.00;;;3.90;;
81265;SDS011;70748;52.510;13.410;2023-06-22T09:37:48;5.07;;;3.78;;
81265;SDS011;70748;52.510;13.410;2023-06-22T09:40:14;4.03;;;3.42;;
81265;SDS011;70748;52.510;13.410;2023-06-22T09:42:41;5.28;;;3.70;;
81265;SDS011;70748;52.510;13.410;2023-06-22T09:45:08;5.90;;;3.50;;
81265;SDS011;70748;52.510;13.410;2023-06-22T09:47:34;5.13;;;3.60;;
81265;SDS011;70748;52.510;13.410;2023-06-22T09:50:00;5.65;;;3.70;;
81265;SDS011;70748;52.510;13.410;2023-06-22T09:52:25;6.57;;;4.05;;
81265;SDS011;70748;52.510;13.410;2023-06-22T09:54:51;6.40;;;3.63;;
81265;SDS011;70748;52.510;13.410;2023-06-22T09:57:17;9.88;;;4.07;;
81265;SDS011;70748;52.510;13.410;2023-06-22T09:59:45;8.40;;;3.78;;
81265;SDS011;70748;52.510;13.410;2023-06-22T10:02:11;4.50;;;3.65;;
81265;SDS011;70748;52.510;13.410;2023-06-22T10:04:38;6.72;;;3.90;;
81265;SDS011;70748;52.510;13.410;2023-06-22T10:07:05;8.07;;;3.78;;
81265;SDS011;70748;52.510;13.410;2023-06-22T10:09:31;6.30;;;4.40;;
81265;SDS011;70748;52.510;13.410;2023-06-22T10:11:57;5.95;;;4.28;;
81265;SDS011;70748;52.510;13.410;2023-06-22T10:14:22;4.82;;;4.10;;
81265;SDS011;70748;52.510;13.410;2023-06-22T10:16:50;6.82;;;4.55;;
81265;SDS011;70748;52.510;13.410;2023-06-22T10:19:17;5.85;;;4.00;;
81265;SDS011;70748;52.510;13.410;2023-06-22T10:21:43;6.05;;;4.00;;
81265;SDS011;70748;52.510;13.410;2023-06-22T10:24:08;4.35;;;3.80;;
81265;SDS011;70748;52.510;13.410;2023-06-22T10:26:34;6.55;;;4.13;;
81265;SDS011;70748;52.510;13.410;2023-06-22T10:29:01;6.67;;;4.30;;
81265;SDS011;70748;52.510;13.410;2023-06-22T10:31:28;7.87;;;3.93;;
81265;SDS011;70748;52.510;13.410;2023-06-22T10:33:54;8.88;;;4.25;;
81265;SDS011;70748;52.510;13.410;2023-06-22T10:36:20;6.68;;;4.10;;
81265;SDS011;70748;52.510;13.410;2023-06-22T10:38:46;7.63;;;4.20;;
81265;SDS011;70748;52.510;13.410;2023-06-22T10:41:13;4.75;;;4.10;;
81265;SDS011;70748;52.510;13.410;2023-06-22T10:43:38;7.00;;;4.32;;
81265;SDS011;70748;52.510;13.410;2023-06-22T10:46:04;5.45;;;4.00;;
81265;SDS011;70748;52.510;13.410;2023-06-22T10:48:30;9.93;;;3.95;;
81265;SDS011;70748;52.510;13.410;2023-06-22T10:50:55;12.88;;;4.82;;
81265;SDS011;70748;52.510;13.410;2023-06-22T10:53:21;6.55;;;4.25;;
81265;SDS011;70748;52.510;13.410;2023-06-22T10:55:47;4.25;;;3.85;;
81265;SDS011;70748;52.510;13.410;2023-06-22T10:58:13;5.43;;;4.13;;
81265;SDS011;70748;52.510;13.410;2023-06-22T11:00:38;6.38;;;4.00;;
81265;SDS011;70748;52.510;13.410;2023-06-22T11:03:04;7.50;;;4.13;;
81265;SDS011;70748;52.510;13.410;2023-06-22T11:05:31;12.48;;;3.97;;
81265;SDS011;70748;52.510;13.410;2023-06-22T11:07:57;7.70;;;3.97;;
81265;SDS011;70748;52.510;13.410;2023-06-22T11:10:23;6.05;;;4.00;;
81265;SDS011;70748;52.510;13.410;2023-06-22T11:12:48;5.53;;;4.13;;
81265;SDS011;70748;52.510;13.410;2023-06-22T11:15:14;5.32;;;3.80;;
81265;SDS011;70748;52.510;13.410;2023-06-22T11:17:40;6.22;;;3.80;;
81265;SDS011;70748;52.510;13.410;2023-06-22T11:20:06;4.65;;;3.83;;
81265;SDS011;70748;52.510;13.410;2023-06-22T11:22:36;5.25;;;4.30;;
81265;SDS011;70748;52.510;13.410;2023-06-22T11:25:06;8.80;;;4.05;;
81265;SDS011;70748;52.510;13.410;2023-06-22T11:27:32;7.97;;;4.43;;
81265;SDS011;70748;52.510;13.410;2023-06-22T11:29:58;7.57;;;3.90;;
81265;SDS011;70748;52.510;13.410;2023-06-22T11:32:24;6.47;;;3.80;;
81265;SDS011;70748;52.510;13.410;2023-06-22T11:34:50;4.53;;;3.83;;
81265;SDS011;70748;52.510;13.410;2023-06-22T11:37:15;7.50;;;3.92;;
81265;SDS011;70748;52.510;13.410;2023-06-22T11:39:41;6.13;;;4.40;;
81265;SDS011;70748;52.510;13.410;2023-06-22T11:42:08;11.70;;;3.90;;
81265;SDS011;70748;52.510;13.410;2023-06-22T11:44:34;4.55;;;3.90;;
81265;SDS011;70748;52.510;13.410;2023-06-22T11:47:00;5.57;;;3.78;;
81265;SDS011;70748;52.510;13.410;2023-06-22T11:49:28;4.72;;;3.70;;
81265;SDS011;70748;52.510;13.410;2023-06-22T11:51:55;5.38;;;4.15;;
81265;SDS011;70748;52.510;13.410;2023-06-22T11:54:20;6.80;;;4.35;;
81265;SDS011;70748;52.510;13.410;2023-06-22T11:56:46;5.95;;;3.95;;
81265;SDS011;70748;52.510;13.410;2023-06-22T11:59:12;9.52;;;3.72;;
81265;SDS011;70748;52.510;13.410;2023-06-22T12:01:38;4.60;;;3.72;;
81265;SDS011;70748;52.510;13.410;2023-06-22T12:04:04;4.70;;;4.25;;
81265;SDS011;70748;52.510;13.410;2023-06-22T12:06:35;6.47;;;4.77;;
81265;SDS011;70748;52.510;13.410;2023-06-22T12:09:03;4.43;;;4.03;;
81265;SDS011;70748;52.510;13.410;2023-06-22T12:11:32;6.63;;;4.15;;
81265;SDS011;70748;52.510;13.410;2023-06-22T12:13:57;6.90;;;4.15;;
81265;SDS011;70748;52.510;13.410;2023-06-22T12:16:27;6.18;;;4.07;;
81265;SDS011;70748;52.510;13.410;2023-06-22T12:18:53;6.93;;;4.10;;
81265;SDS011;70748;52.510;13.410;2023-06-22T12:21:19;13.23;;;4.45;;
81265;SDS011;70748;52.510;13.410;2023-06-22T12:23:44;5.57;;;4.20;;
81265;SDS011;70748;52.510;13.410;2023-06-22T12:26:10;4.88;;;4.20;;
81265;SDS011;70748;52.510;13.410;2023-06-22T12:28:36;5.72;;;4.28;;
81265;SDS011;70748;52.510;13.410;2023-06-22T12:31:02;4.30;;;3.90;;
81265;SDS011;70748;52.510;13.410;2023-06-22T12:33:27;8.25;;;4.30;;
81265;SDS011;70748;52.510;13.410;2023-06-22T12:35:55;7.60;;;4.07;;
81265;SDS011;70748;52.510;13.410;2023-06-22T12:38:21;4.77;;;4.27;;
81265;SDS011;70748;52.510;13.410;2023-06-22T12:40:47;4.82;;;4.13;;
81265;SDS011;70748;52.510;13.410;2023-06-22T12:43:14;7.03;;;4.40;;
81265;SDS011;70748;52.510;13.410;2023-06-22T12:45:40;7.70;;;4.45;;
81265;SDS011;70748;52.510;13.410;2023-06-22T12:48:06;6.00;;;4.40;;
81265;SDS011;70748;52.510;13.410;2023-06-22T12:50:31;9.27;;;4.35;;
81265;SDS011;70748;52.510;13.410;2023-06-22T12:52:57;7.30;;;4.53;;
81265;SDS011;70748;52.510;13.410;2023-06-22T12:55:23;9.68;;;4.25;;
81265;SDS011;70748;52.510;13.410;2023-06-22T12:57:48;8.35;;;4.15;;
81265;SDS011;70748;52.510;13.410;2023-06-22T13:00:14;8.73;;;4.72;;
81265;SDS011;70748;52.510;13.410;2023-06-22T13:02:40;11.55;;;4.80;;
81265;SDS011;70748;52.510;13.410;2023-06-22T13:05:07;7.70;;;4.63;;
81265;SDS011;70748;52.510;13.410;2023-06-22T13:07:33;6.90;;;4.57;;
81265;SDS011;70748;52.510;13.410;2023-06-22T13:09:59;8.23;;;5.10;;
81265;SDS011;70748;52.510;13.410;2023-06-22T13:12:25;6.75;;;5.07;;
81265;SDS011;70748;52.510;13.410;2023-06-22T13:14:50;5.38;;;4.65;;
81265;SDS011;70748;52.510;13.410;2023-06-22T13:17:16;6.47;;;4.05;;
81265;SDS011;70748;52.510;13.410;2023-06-22T13:19:42;6.38;;;4.32;;
81265;SDS011;70748;52.510;13.410;2023-06-22T13:24:56;6.68;;;4.20;;
81265;SDS011;70748;52.510;13.410;2023-06-22T13:27:23;5.53;;;4.13;;
81265;SDS011;70748;52.510;13.410;2023-06-22T13:29:49;7.88;;;4.45;;
81265;SDS011;70748;52.510;13.410;2023-06-22T13:32:15;5.18;;;4.40;;
81265;SDS011;70748;52.510;13.410;2023-06-22T13:34:42;6.40;;;4.47;;
81265;SDS011;70748;52.510;13.410;2023-06-22T13:37:08;9.30;;;4.38;;
81265;SDS011;70748;52.510;13.410;2023-06-22T13:39:34;5.35;;;4.07;;
81265;SDS011;70748;52.510;13.410;2023-06-22T13:41:59;9.30;;;4.40;;
81265;SDS011;70748;52.510;13.410;2023-06-22T13:44:25;7.40;;;4.65;;
81265;SDS011;70748;52.510;13.410;2023-06-22T13:46:54;8.02;;;4.47;;
81265;SDS011;70748;52.510;13.410;2023-06-22T13:49:20;8.00;;;5.07;;
81265;SDS011;70748;52.510;13.410;2023-06-22T13:51:46;9.40;;;4.43;;
81265;SDS011;70748;52.510;13.410;2023-06-22T13:54:13;7.43;;;4.80;;
81265;SDS011;70748;52.510;13.410;2023-06-22T13:56:39;5.65;;;4.15;;
81265;SDS011;70748;52.510;13.410;2023-06-22T13:59:05;8.63;;;4.60;;
81265;SDS011;70748;52.510;13.410;2023-06-22T14:01:32;5.10;;;4.60;;
81265;SDS011;70748;52.510;13.410;2023-06-22T14:03:58;5.53;;;4.50;;
81265;SDS011;70748;52.510;13.410;2023-06-22T14:06:23;7.13;;;4.88;;
81265;SDS011;70748;52.510;13.410;2023-06-22T14:08:49;6.60;;;4.45;;
81265;SDS011;70748;52.510;13.410;2023-06-22T14:11:16;15.27;;;4.80;;
81265;SDS011;70748;52.510;13.410;2023-06-22T14:13:41;6.63;;;5.07;;
81265;SDS011;70748;52.510;13.410;2023-06-22T14:16:08;7.20;;;4.70;;
81265;SDS011;70748;52.510;13.410;2023-06-22T14:18:33;8.10;;;4.70;;
81265;SDS011;70748;52.510;13.410;2023-06-22T14:20:59;7.00;;;4.40;;
81265;SDS011;70748;52.510;13.410;2023-06-22T14:23:25;5.88;;;4.43;;
81265;SDS011;70748;52.510;13.410;2023-06-22T14:25:52;7.40;;;4.60;;
81265;SDS011;70748;52.510;13.410;2023-06-22T14:28:17;7.72;;;4.50;;
81265;SDS011;70748;52.510;13.410;2023-06-22T14:30:43;6.25;;;4.45;;
81265;SDS011;70748;52.510;13.410;2023-06-22T14:33:09;6.68;;;4.90;;
81265;SDS011;70748;52.510;13.410;2023-06-22T14:35:35;6.53;;;5.32;;
81265;SDS011;70748;52.510;13.410;2023-06-22T14:38:00;5.47;;;4.90;;
81265;SDS011;70748;52.510;13.410;2023-06-22T14:40:26;5.07;;;4.10;;
81265;SDS011;70748;52.510;13.410;2023-06-22T14:42:52;9.35;;;4.40;;
81265;SDS011;70748;52.510;13.410;2023-06-22T14:45:17;6.18;;;4.43;;
81265;SDS011;70748;52.510;13.410;2023-06-22T14:47:43;6.45;;;4.35;;
81265;SDS011;70748;52.510;13.410;2023-06-22T14:50:09;6.35;;;5.53;;
81265;SDS011;70748;52.510;13.410;2023-06-22T14:52:35;9.45;;;6.47;;
81265;SDS011;70748;52.510;13.410;2023-06-22T14:55:00;8.10;;;5.05;;
81265;SDS011;70748;52.510;13.410;2023-06-22T14:57:26;4.93;;;4.47;;
81265;SDS011;70748;52.510;13.410;2023-06-22T14:59:51;6.65;;;4.40;;
81265;SDS011;70748;52.510;13.410;2023-06-22T15:02:17;8.88;;;5.30;;
81265;SDS011;70748;52.510;13.410;2023-06-22T15:04:43;5.97;;;4.88;;